createdAt,value
2023-03-26T00:02:59.624Z,3.53
2023-03-26T00:08:03.223Z,6.38
2023-03-26T00:13:06.429Z,3.13
2023-03-26T00:18:09.653Z,3.40
2023-03-26T00:23:12.477Z,4.18
2023-03-26T00:28:17.460Z,3.05
2023-03-26T00:33:20.264Z,3.40
2023-03-26T00:38:24.213Z,3.17
2023-03-26T00:43:27.112Z,3.30
2023-03-26T00:48:44.102Z,2.67
2023-03-26T00:53:48.457Z,2.78
2023-03-26T00:58:51.227Z,5.80
2023-03-26T01:04:08.343Z,5.57
2023-03-26T01:09:19.524Z,4.47
2023-03-26T01:14:26.983Z,2.67
2023-03-26T01:19:34.306Z,1.40
2023-03-26T01:24:37.368Z,4.13
2023-03-26T01:29:58.995Z,2.30
2023-03-26T01:35:05.188Z,4.38
2023-03-26T01:40:18.384Z,3.72
2023-03-26T01:45:41.258Z,4.40
2023-03-26T01:50:44.594Z,4.40
2023-03-26T01:55:54.208Z,8.10
2023-03-26T02:01:20.450Z,3.53
2023-03-26T02:06:26.934Z,8.02
2023-03-26T02:11:35.422Z,3.75
2023-03-26T02:16:38.987Z,2.75
2023-03-26T02:21:42.242Z,2.80
2023-03-26T02:26:46.238Z,2.78
2023-03-26T02:31:49.468Z,1.40
2023-03-26T02:36:52.700Z,1.73
2023-03-26T02:41:55.894Z,2.40
2023-03-26T02:46:59.468Z,4.53
2023-03-26T02:52:20.815Z,2.15
2023-03-26T02:57:26.216Z,7.30
2023-03-26T03:02:53.105Z,5.30
2023-03-26T03:08:08.342Z,5.30
2023-03-26T03:13:13.999Z,3.33
2023-03-26T03:18:16.889Z,7.80
2023-03-26T03:23:20.274Z,3.53
2023-03-26T03:28:25.841Z,2.50
2023-03-26T03:33:28.695Z,3.63
2023-03-26T03:38:31.457Z,3.83
2023-03-26T03:43:35.018Z,4.88
2023-03-26T03:48:54.684Z,4.10
2023-03-26T03:54:11.292Z,4.80
2023-03-26T03:59:23.244Z,5.00
2023-03-26T04:04:26.686Z,3.58
2023-03-26T04:09:36.305Z,2.83
2023-03-26T04:14:48.732Z,3.95
2023-03-26T04:19:55.293Z,4.22
2023-03-26T04:25:02.889Z,3.05
2023-03-26T04:30:15.882Z,4.43
2023-03-26T04:35:19.757Z,3.75
2023-03-26T04:40:30.973Z,4.97
2023-03-26T04:45:48.494Z,5.25
2023-03-26T04:50:54.115Z,4.07
2023-03-26T04:56:22.252Z,5.93
2023-03-26T05:01:46.225Z,4.72
2023-03-26T05:06:52.069Z,4.72
2023-03-26T05:12:11.936Z,2.78
2023-03-26T05:17:35.199Z,3.08
2023-03-26T05:22:39.972Z,4.50
2023-03-26T05:27:51.094Z,3.10
2023-03-26T05:32:57.200Z,2.85
2023-03-26T05:38:06.944Z,1.83
2023-03-26T05:43:09.861Z,4.57
2023-03-26T05:48:34.108Z,4.22
2023-03-26T05:53:37.148Z,2.95
2023-03-26T05:59:02.421Z,4.22
2023-03-26T06:04:25.878Z,3.67
2023-03-26T06:10:03.739Z,3.35
2023-03-26T06:15:07.261Z,3.30
2023-03-26T06:20:24.171Z,2.15
2023-03-26T06:25:28.741Z,2.08
2023-03-26T06:30:45.171Z,3.35
2023-03-26T06:36:06.920Z,1.98
2023-03-26T06:41:10.061Z,3.13
2023-03-26T06:46:48.556Z,3.08
2023-03-26T06:52:17.738Z,5.45
2023-03-26T06:57:39.301Z,3.45
2023-03-26T07:03:05.832Z,3.47
2023-03-26T07:08:27.251Z,6.00
2023-03-26T07:13:48.746Z,5.95
2023-03-26T07:19:10.743Z,6.32
2023-03-26T07:24:17.298Z,2.90
2023-03-26T07:29:41.766Z,3.25
2023-03-26T07:34:58.024Z,3.38
2023-03-26T07:40:22.864Z,3.20
2023-03-26T07:45:45.791Z,1.73
2023-03-26T07:51:06.629Z,3.50
2023-03-26T07:56:36.927Z,1.85
2023-03-26T08:02:22.339Z,2.33
2023-03-26T08:07:45.613Z,4.28
2023-03-26T08:13:04.563Z,3.83
2023-03-26T08:18:27.865Z,3.55
2023-03-26T08:23:51.297Z,3.22
2023-03-26T08:29:10.249Z,3.85
2023-03-26T08:34:17.070Z,3.97
2023-03-26T08:39:22.788Z,4.75
2023-03-26T08:44:40.992Z,4.38
2023-03-26T08:49:56.390Z,2.65
2023-03-26T08:55:07.852Z,4.45
2023-03-26T09:00:34.209Z,4.78
2023-03-26T09:06:03.384Z,3.58
2023-03-26T09:11:21.617Z,4.70
2023-03-26T09:16:27.769Z,3.55
2023-03-26T09:21:36.500Z,6.28
2023-03-26T09:26:51.474Z,4.32
2023-03-26T09:32:13.192Z,6.22
2023-03-26T09:37:22.579Z,8.95
2023-03-26T09:42:45.129Z,3.53
2023-03-26T09:48:06.383Z,4.13
2023-03-26T09:53:27.937Z,3.75
2023-03-26T09:58:36.661Z,6.63
2023-03-26T10:03:50.492Z,3.63
2023-03-26T10:09:11.983Z,6.38
2023-03-26T10:14:26.219Z,4.97
2023-03-26T10:19:29.800Z,4.63
2023-03-26T10:24:51.594Z,6.65
2023-03-26T10:29:57.702Z,7.90
2023-03-26T10:35:12.838Z,3.20
2023-03-26T10:40:52.527Z,10.52
2023-03-26T10:46:17.458Z,3.88
2023-03-26T10:51:28.564Z,4.13
2023-03-26T10:56:44.064Z,4.00
2023-03-26T11:01:53.197Z,7.07
2023-03-26T11:07:07.465Z,4.65
2023-03-26T11:12:26.991Z,7.68
2023-03-26T11:17:55.648Z,7.97
2023-03-26T11:23:07.980Z,7.25
2023-03-26T11:28:21.665Z,5.03
2023-03-26T11:33:45.668Z,8.93
2023-03-26T11:38:51.378Z,5.85
2023-03-26T11:44:03.335Z,4.97
2023-03-26T11:49:11.663Z,3.85
2023-03-26T11:54:15.490Z,6.25
2023-03-26T11:59:24.075Z,6.10
2023-03-26T12:04:33.927Z,4.90
2023-03-26T12:09:36.948Z,5.80
2023-03-26T12:14:42.909Z,6.50
2023-03-26T12:19:46.174Z,5.60
2023-03-26T12:25:00.718Z,6.78
2023-03-26T12:30:11.194Z,6.72
2023-03-26T12:35:20.797Z,3.25
2023-03-26T12:40:26.563Z,6.00
2023-03-26T12:45:31.796Z,3.88
2023-03-26T12:50:44.417Z,6.85
2023-03-26T12:55:47.928Z,4.15
2023-03-26T13:00:50.746Z,3.40
2023-03-26T13:05:53.726Z,4.82
2023-03-26T13:11:01.843Z,3.83
2023-03-26T13:16:10.055Z,5.03
2023-03-26T13:21:35.865Z,3.72
2023-03-26T13:26:47.983Z,6.55
2023-03-26T13:31:56.835Z,3.85
2023-03-26T13:37:04.528Z,3.33
2023-03-26T13:42:13.020Z,3.25
2023-03-26T13:47:24.519Z,2.90
2023-03-26T13:52:29.334Z,2.63
2023-03-26T13:57:34.199Z,3.30
2023-03-26T14:02:41.034Z,1.65
2023-03-26T14:07:46.933Z,3.65
2023-03-26T14:13:04.900Z,2.92
2023-03-26T14:18:25.208Z,2.78
2023-03-26T14:23:46.941Z,2.80
2023-03-26T14:28:55.524Z,1.93
2023-03-26T14:34:13.662Z,2.42
2023-03-26T14:39:16.712Z,2.95
2023-03-26T14:44:25.715Z,3.10
2023-03-26T14:49:44.253Z,1.90
2023-03-26T14:54:48.732Z,2.83
2023-03-26T15:00:15.795Z,2.63
2023-03-26T15:05:37.816Z,2.67
2023-03-26T15:10:47.585Z,2.60
2023-03-26T15:15:56.456Z,4.35
2023-03-26T15:21:02.240Z,3.58
2023-03-26T15:26:08.219Z,4.00
2023-03-26T15:31:21.321Z,3.03
2023-03-26T15:36:35.600Z,5.25
2023-03-26T15:41:47.807Z,15.77
2023-03-26T15:47:00.272Z,9.63
2023-03-26T15:52:19.077Z,8.45
2023-03-26T15:57:39.592Z,13.60
2023-03-26T16:02:54.067Z,3.83
2023-03-26T16:08:03.045Z,4.72
2023-03-26T16:13:15.061Z,15.77
2023-03-26T16:18:37.337Z,9.15
2023-03-26T16:23:47.281Z,4.82
2023-03-26T16:28:51.804Z,4.57
2023-03-26T16:34:03.645Z,2.97
2023-03-26T16:39:06.630Z,4.97
2023-03-26T16:44:21.374Z,3.20
2023-03-26T16:49:43.120Z,2.75
2023-03-26T16:54:46.196Z,2.35
2023-03-26T17:00:07.565Z,4.13
2023-03-26T17:05:29.589Z,2.83
2023-03-26T17:10:41.315Z,4.70
2023-03-26T17:15:49.176Z,2.77
2023-03-26T17:20:57.991Z,5.03
2023-03-26T17:26:00.761Z,6.00
2023-03-26T17:36:22.330Z,4.87
2023-03-26T17:41:47.965Z,4.00
2023-03-26T17:46:51.346Z,5.47
2023-03-26T17:52:00.157Z,4.70
2023-03-26T17:57:06.712Z,6.05
2023-03-26T18:02:32.869Z,4.03
2023-03-26T18:07:36.075Z,8.07
2023-03-26T18:12:38.701Z,4.88
2023-03-26T18:17:46.305Z,5.40
2023-03-26T18:22:49.925Z,3.47
2023-03-26T18:27:52.868Z,5.35
2023-03-26T18:33:12.305Z,5.47
2023-03-26T18:38:35.122Z,4.63
2023-03-26T18:43:44.024Z,6.53
2023-03-26T18:48:47.728Z,10.23
2023-03-26T18:53:52.735Z,6.60
2023-03-26T18:58:57.765Z,8.43
2023-03-26T19:04:04.099Z,8.75
2023-03-26T19:09:16.683Z,7.80
2023-03-26T19:14:28.775Z,5.25
2023-03-26T19:19:33.351Z,8.93
2023-03-26T19:24:36.093Z,7.07
2023-03-26T19:29:38.769Z,5.55
2023-03-26T19:34:41.540Z,6.22
2023-03-26T19:39:51.750Z,6.80
2023-03-26T19:44:54.986Z,7.18
2023-03-26T19:49:58.750Z,6.20
2023-03-26T19:55:02.512Z,7.40
2023-03-26T20:00:09.828Z,9.30
2023-03-26T20:05:18.509Z,9.07
2023-03-26T20:10:21.271Z,10.40
2023-03-26T20:15:28.167Z,14.23
2023-03-26T20:20:31.334Z,8.10
2023-03-26T20:25:34.087Z,12.80
2023-03-26T20:30:38.035Z,11.38
2023-03-26T20:35:41.386Z,12.18
2023-03-26T20:40:45.028Z,8.32
2023-03-26T20:45:48.663Z,8.70
2023-03-26T20:50:54.331Z,12.18
2023-03-26T20:55:57.099Z,14.63
2023-03-26T21:01:00.609Z,8.75
2023-03-26T21:06:04.957Z,12.75
2023-03-26T21:11:26.619Z,11.40
2023-03-26T21:16:30.549Z,12.60
2023-03-26T21:21:52.832Z,11.38
2023-03-26T21:27:14.801Z,8.53
2023-03-26T21:32:17.498Z,6.60
2023-03-26T21:37:20.546Z,7.15
2023-03-26T21:42:27.138Z,8.45
2023-03-26T21:47:31.904Z,6.88
2023-03-26T21:52:35.754Z,10.05
2023-03-26T21:57:53.764Z,14.02
2023-03-26T22:03:08.838Z,11.30
2023-03-26T22:08:31.695Z,9.20
2023-03-26T22:13:38.876Z,12.60
2023-03-26T22:18:43.924Z,9.05
2023-03-26T22:23:50.507Z,9.02
2023-03-26T22:28:53.389Z,8.70
2023-03-26T22:33:56.243Z,8.65
2023-03-26T22:38:59.058Z,7.22
2023-03-26T22:44:16.839Z,12.05
2023-03-26T22:49:22.264Z,13.38
2023-03-26T22:54:25.271Z,7.68
2023-03-26T22:59:28.540Z,7.65
2023-03-26T23:04:32.392Z,7.38
2023-03-26T23:14:53.138Z,6.38
2023-03-26T23:19:55.953Z,7.65
2023-03-26T23:24:58.583Z,5.47
2023-03-26T23:30:01.593Z,4.80
2023-03-26T23:35:04.860Z,10.52
2023-03-26T23:40:10.561Z,6.60
2023-03-26T23:45:13.329Z,7.90
2023-03-26T23:50:16.810Z,3.70
2023-03-26T23:55:19.640Z,4.03
